Time;durP1;ratioP1;P1;durP2;ratioP2;P2;SDS_P1;SDS_P2;PMS_P1;PMS_P2;Temp;Humidity;BMP_temperature;BMP_pressure;BME280_temperature;BME280_humidity;BME280_pressure;Samples;Min_cycle;Max_cycle;Signal;HPM_P1;HPM_P2
2021/06/04 00:01:07;;;;;;;15.45;3.90;;;;;;;;;;6146953;23;20212;-92
2021/06/04 00:04:11;;;;;;;7.10;3.83;;;;;;;;;;6147631;23;20214;-92
2021/06/04 00:07:16;;;;;;;7.00;4.07;;;;;;;;;;6145675;23;20216;-92
2021/06/04 00:10:23;;;;;;;6.20;4.05;;;;;;;;;;6145788;23;20208;-92
2021/06/04 00:13:29;;;;;;;11.98;4.05;;;;;;;;;;6145090;23;20196;-91
2021/06/04 00:16:36;;;;;;;11.13;4.30;;;;;;;;;;6146427;23;20202;-92
2021/06/04 00:19:41;;;;;;;6.38;4.10;;;;;;;;;;6147723;23;20173;-92
2021/06/04 00:22:45;;;;;;;9.82;4.20;;;;;;;;;;6145916;23;20228;-91
2021/06/04 00:25:50;;;;;;;6.22;4.18;;;;;;;;;;6147545;23;20160;-92
2021/06/04 00:28:55;;;;;;;9.32;4.60;;;;;;;;;;6145706;23;20164;-91
2021/06/04 00:32:01;;;;;;;8.68;4.70;;;;;;;;;;6145492;23;20258;-93
2021/06/04 00:35:07;;;;;;;6.38;4.68;;;;;;;;;;6146529;23;20168;-92
2021/06/04 00:38:12;;;;;;;10.02;4.10;;;;;;;;;;6146539;23;20167;-93
2021/06/04 00:41:19;;;;;;;10.85;4.32;;;;;;;;;;6144500;23;20173;-92
2021/06/04 00:44:27;;;;;;;6.45;4.00;;;;;;;;;;6145333;23;20176;-91
2021/06/04 00:47:33;;;;;;;10.93;4.07;;;;;;;;;;6145901;23;20193;-92
2021/06/04 00:50:40;;;;;;;6.60;3.85;;;;;;;;;;6146527;23;20240;-91
2021/06/04 00:53:46;;;;;;;7.80;4.13;;;;;;;;;;6146620;23;20164;-92
2021/06/04 00:56:56;;;;;;;7.85;4.40;;;;;;;;;;6132892;23;20220;-92
2021/06/04 01:00:03;;;;;;;6.72;4.05;;;;;;;;;;6150290;23;20168;-92
2021/06/04 01:03:13;;;;;;;6.57;4.03;;;;;;;;;;6150908;23;20601;-91
2021/06/04 01:06:22;;;;;;;7.10;4.13;;;;;;;;;;6150560;23;20241;-91
2021/06/04 01:09:41;;;;;;;9.00;4.07;;;;;;;;;;6150180;23;20276;-92
2021/06/04 01:12:53;;;;;;;6.43;4.43;;;;;;;;;;6149734;23;20204;-92
2021/06/04 01:16:06;;;;;;;8.23;4.28;;;;;;;;;;6148172;23;20234;-91
2021/06/04 01:19:28;;;;;;;9.88;4.13;;;;;;;;;;6146987;23;20705;-91
2021/06/04 01:22:44;;;;;;;7.75;4.80;;;;;;;;;;6147393;23;20169;-93
2021/06/04 01:25:51;;;;;;;6.80;4.22;;;;;;;;;;6147690;23;20176;-91
2021/06/04 01:28:59;;;;;;;7.75;4.43;;;;;;;;;;6147737;23;20172;-91
2021/06/04 01:32:10;;;;;;;8.02;4.55;;;;;;;;;;6147612;23;20248;-91
2021/06/04 01:35:18;;;;;;;9.77;4.28;;;;;;;;;;6148206;23;20156;-92
2021/06/04 01:38:24;;;;;;;8.32;4.22;;;;;;;;;;6146767;23;20168;-92
2021/06/04 01:41:33;;;;;;;9.93;4.70;;;;;;;;;;6147229;23;20412;-91
2021/06/04 01:44:41;;;;;;;14.40;4.57;;;;;;;;;;6135082;23;20256;-91
2021/06/04 01:47:47;;;;;;;11.07;4.65;;;;;;;;;;6135538;23;20181;-90
2021/06/04 01:50:55;;;;;;;11.73;4.88;;;;;;;;;;6135474;23;20228;-90
2021/06/04 01:54:03;;;;;;;7.63;4.38;;;;;;;;;;6133915;23;20169;-92
2021/06/04 01:57:12;;;;;;;7.53;4.78;;;;;;;;;;6118692;23;20149;-91
2021/06/04 02:00:19;;;;;;;5.47;4.20;;;;;;;;;;6136429;23;20173;-91
2021/06/04 02:03:37;;;;;;;7.30;4.63;;;;;;;;;;6136156;23;20309;-91
2021/06/04 02:06:48;;;;;;;7.30;4.60;;;;;;;;;;6135228;23;20616;-92
2021/06/04 02:09:55;;;;;;;10.23;4.63;;;;;;;;;;6135344;23;20253;-92
2021/06/04 02:13:06;;;;;;;8.85;4.63;;;;;;;;;;6135126;23;20200;-91
2021/06/04 02:16:24;;;;;;;11.18;4.95;;;;;;;;;;6135103;23;20169;-91
2021/06/04 02:19:38;;;;;;;6.88;4.13;;;;;;;;;;6135272;23;20165;-92
2021/06/04 02:22:58;;;;;;;7.82;4.90;;;;;;;;;;6134919;23;20170;-91
2021/06/04 02:26:08;;;;;;;6.55;4.90;;;;;;;;;;6135787;23;20158;-91
2021/06/04 02:29:17;;;;;;;10.32;4.68;;;;;;;;;;6136081;23;20190;-91
2021/06/04 02:32:25;;;;;;;7.18;5.20;;;;;;;;;;6134675;23;20529;-90
2021/06/04 02:35:35;;;;;;;8.20;4.75;;;;;;;;;;6135039;23;20168;-90
2021/06/04 02:38:43;;;;;;;10.32;5.18;;;;;;;;;;6134706;23;20173;-91
2021/06/04 02:41:50;;;;;;;10.02;4.93;;;;;;;;;;6134968;23;20255;-91
2021/06/04 02:44:58;;;;;;;6.90;4.75;;;;;;;;;;6148355;23;20172;-91
2021/06/04 02:48:08;;;;;;;15.88;5.50;;;;;;;;;;6146180;23;20229;-91
2021/06/04 02:51:17;;;;;;;10.75;5.55;;;;;;;;;;6147337;23;20168;-90
2021/06/04 02:54:25;;;;;;;8.57;5.38;;;;;;;;;;6148907;23;20148;-91
2021/06/04 02:57:31;;;;;;;9.07;5.15;;;;;;;;;;6146358;23;20176;-91
2021/06/04 03:00:39;;;;;;;10.98;5.57;;;;;;;;;;6148520;23;20175;-91
2021/06/04 03:03:48;;;;;;;9.48;5.70;;;;;;;;;;6147640;23;20247;-91
2021/06/04 03:06:55;;;;;;;10.70;5.97;;;;;;;;;;6146665;23;20176;-91
2021/06/04 03:10:08;;;;;;;9.20;5.55;;;;;;;;;;6146941;23;20144;-91
2021/06/04 03:13:14;;;;;;;9.20;5.45;;;;;;;;;;6146898;23;20211;-91
2021/06/04 03:16:23;;;;;;;11.05;5.30;;;;;;;;;;6146806;23;20756;-91
2021/06/04 03:19:32;;;;;;;9.38;5.40;;;;;;;;;;6145955;23;20559;-91
2021/06/04 03:22:38;;;;;;;11.90;6.13;;;;;;;;;;6145715;23;20612;-90
2021/06/04 03:25:47;;;;;;;9.63;5.80;;;;;;;;;;6146502;23;20172;-91
2021/06/04 03:28:55;;;;;;;10.00;5.43;;;;;;;;;;6146577;23;20249;-90
2021/06/04 03:32:03;;;;;;;12.55;5.82;;;;;;;;;;6144345;23;20523;-93
2021/06/04 03:35:09;;;;;;;8.77;5.60;;;;;;;;;;6145504;23;20172;-91
2021/06/04 03:38:16;;;;;;;11.57;5.93;;;;;;;;;;6145884;23;20180;-91
2021/06/04 03:41:24;;;;;;;10.65;4.80;;;;;;;;;;6145386;23;20228;-93
2021/06/04 03:44:32;;;;;;;10.77;6.10;;;;;;;;;;6146802;23;20234;-92
2021/06/04 03:47:38;;;;;;;11.93;5.85;;;;;;;;;;6146522;23;20176;-92
2021/06/04 03:50:43;;;;;;;8.85;5.90;;;;;;;;;;6144797;23;20204;-93
2021/06/04 03:53:48;;;;;;;11.85;5.93;;;;;;;;;;6145751;23;20255;-92
2021/06/04 03:56:53;;;;;;;11.63;5.50;;;;;;;;;;6146622;23;20185;-92
2021/06/04 03:59:58;;;;;;;9.45;5.70;;;;;;;;;;6146837;23;20172;-93
2021/06/04 04:06:53;;;;;;;12.00;6.03;;;;;;;;;;6146501;23;20265;-93
2021/06/04 04:09:57;;;;;;;13.10;5.85;;;;;;;;;;6147145;23;20169;-92
2021/06/04 04:13:02;;;;;;;11.27;5.70;;;;;;;;;;6146856;23;20204;-93
2021/06/04 04:16:06;;;;;;;13.70;5.63;;;;;;;;;;6148423;23;20197;-93
2021/06/04 04:19:11;;;;;;;10.20;5.65;;;;;;;;;;6148564;23;20243;-93
2021/06/04 04:22:17;;;;;;;9.70;5.50;;;;;;;;;;6145387;23;20179;-93
2021/06/04 04:25:22;;;;;;;9.02;5.20;;;;;;;;;;6163707;23;20192;-93
2021/06/04 04:28:28;;;;;;;10.18;5.18;;;;;;;;;;6146188;23;20197;-92
2021/06/04 04:31:37;;;;;;;8.68;5.55;;;;;;;;;;6147641;23;20165;-92
2021/06/04 04:34:45;;;;;;;11.07;6.10;;;;;;;;;;6149129;23;20248;-93
2021/06/04 04:37:51;;;;;;;19.35;6.20;;;;;;;;;;6149029;23;20244;-93
2021/06/04 04:41:00;;;;;;;10.40;5.38;;;;;;;;;;6149608;23;20168;-92
2021/06/04 04:44:06;;;;;;;31.15;6.68;;;;;;;;;;6166934;23;20651;-92
2021/06/04 04:47:40;;;;;;;21.60;6.15;;;;;;;;;;6165881;23;20280;-94
2021/06/04 04:50:45;;;;;;;13.55;5.75;;;;;;;;;;6166018;23;20671;-92
2021/06/04 04:53:51;;;;;;;11.63;5.97;;;;;;;;;;6164755;23;20200;-90
2021/06/04 04:56:56;;;;;;;15.27;5.85;;;;;;;;;;6166758;23;20241;-94
2021/06/04 05:00:00;;;;;;;9.05;5.82;;;;;;;;;;6167433;23;20208;-90
2021/06/04 05:03:05;;;;;;;10.93;5.82;;;;;;;;;;6167788;23;20173;-93
2021/06/04 05:06:10;;;;;;;11.98;5.70;;;;;;;;;;6167148;23;20271;-92
2021/06/04 05:09:16;;;;;;;7.93;5.43;;;;;;;;;;6167274;23;20188;-94
2021/06/04 05:12:21;;;;;;;11.30;6.60;;;;;;;;;;6167295;23;20200;-91
2021/06/04 05:15:28;;;;;;;8.32;5.63;;;;;;;;;;6169649;23;20168;-93
2021/06/04 05:18:34;;;;;;;9.55;6.05;;;;;;;;;;6168461;23;20240;-93
2021/06/04 05:21:39;;;;;;;10.82;6.03;;;;;;;;;;6167498;23;20169;-91
2021/06/04 05:24:45;;;;;;;8.27;6.00;;;;;;;;;;6165908;23;20168;-91
2021/06/04 05:27:51;;;;;;;9.30;5.97;;;;;;;;;;6165425;23;20685;-92
2021/06/04 05:30:59;;;;;;;9.57;5.60;;;;;;;;;;6150642;23;20168;-92
2021/06/04 05:34:04;;;;;;;9.70;5.82;;;;;;;;;;6167824;23;20172;-92
2021/06/04 05:37:09;;;;;;;10.15;5.63;;;;;;;;;;6166508;23;20177;-92
2021/06/04 05:40:17;;;;;;;14.93;5.68;;;;;;;;;;6166649;23;20169;-92
2021/06/04 05:43:23;;;;;;;10.80;5.88;;;;;;;;;;6149777;23;20180;-91
2021/06/04 05:46:28;;;;;;;10.20;5.38;;;;;;;;;;6166515;23;20206;-93
2021/06/04 05:49:32;;;;;;;9.45;6.22;;;;;;;;;;6166557;23;20164;-93
2021/06/04 05:52:37;;;;;;;8.05;5.50;;;;;;;;;;6167535;23;20268;-92
2021/06/04 05:55:43;;;;;;;9.25;5.82;;;;;;;;;;6165650;23;20168;-93
2021/06/04 05:58:49;;;;;;;10.40;5.90;;;;;;;;;;6165264;23;20241;-89
2021/06/04 06:01:54;;;;;;;8.95;5.70;;;;;;;;;;6167296;23;20165;-93
2021/06/04 06:05:00;;;;;;;13.32;6.13;;;;;;;;;;6167090;23;20176;-92
2021/06/04 06:08:05;;;;;;;12.70;7.40;;;;;;;;;;6165513;23;20172;-92
2021/06/04 06:11:12;;;;;;;15.15;7.22;;;;;;;;;;6149084;23;20164;-92
2021/06/04 06:14:16;;;;;;;11.25;6.35;;;;;;;;;;6167841;23;20160;-93
2021/06/04 06:17:21;;;;;;;9.80;6.25;;;;;;;;;;6167142;23;20608;-91
2021/06/04 06:20:29;;;;;;;11.70;6.53;;;;;;;;;;6168432;23;20519;-92
2021/06/04 06:23:35;;;;;;;12.43;6.35;;;;;;;;;;6168249;23;20172;-93
2021/06/04 06:26:41;;;;;;;11.38;6.55;;;;;;;;;;6169733;23;20618;-92
2021/06/04 06:29:46;;;;;;;10.60;6.20;;;;;;;;;;6169208;23;20164;-92
2021/06/04 06:32:51;;;;;;;17.17;6.15;;;;;;;;;;6167066;23;20530;-92
2021/06/04 06:35:57;;;;;;;12.68;6.63;;;;;;;;;;6167455;23;20188;-93
2021/06/04 06:39:05;;;;;;;8.00;5.43;;;;;;;;;;6169321;23;20180;-92
2021/06/04 06:42:13;;;;;;;8.35;5.32;;;;;;;;;;6167351;23;20183;-93
2021/06/04 06:45:18;;;;;;;7.88;5.20;;;;;;;;;;6150857;23;20251;-90
2021/06/04 06:48:23;;;;;;;8.48;4.82;;;;;;;;;;6148874;23;20212;-91
2021/06/04 06:51:28;;;;;;;7.72;4.50;;;;;;;;;;6150474;23;20209;-94
2021/06/04 06:54:35;;;;;;;6.72;4.30;;;;;;;;;;6152961;23;20200;-92
2021/06/04 06:57:42;;;;;;;5.82;4.22;;;;;;;;;;6149732;23;20237;-91
2021/06/04 07:00:47;;;;;;;8.13;4.38;;;;;;;;;;6151878;23;20172;-91
2021/06/04 07:03:52;;;;;;;5.40;4.07;;;;;;;;;;6151823;23;20219;-91
2021/06/04 07:06:57;;;;;;;8.23;4.50;;;;;;;;;;6148870;23;20171;-92
2021/06/04 07:10:02;;;;;;;9.70;4.18;;;;;;;;;;6149608;23;20176;-91
2021/06/04 07:13:11;;;;;;;9.93;4.53;;;;;;;;;;6155321;23;20204;-93
2021/06/04 07:16:16;;;;;;;10.38;4.35;;;;;;;;;;6150921;23;20176;-90
2021/06/04 07:19:22;;;;;;;9.73;4.47;;;;;;;;;;6149641;23;20637;-90
2021/06/04 07:22:30;;;;;;;6.30;3.95;;;;;;;;;;6150752;23;20676;-91
2021/06/04 07:25:36;;;;;;;6.47;4.18;;;;;;;;;;6149620;23;20160;-92
2021/06/04 07:28:44;;;;;;;10.57;4.18;;;;;;;;;;6150885;23;20172;-92
2021/06/04 07:31:50;;;;;;;10.38;3.97;;;;;;;;;;6149686;23;20518;-92
2021/06/04 07:34:54;;;;;;;7.43;3.70;;;;;;;;;;6150082;23;20587;-92
2021/06/04 07:37:59;;;;;;;7.78;3.47;;;;;;;;;;6149761;23;20164;-91
2021/06/04 07:41:05;;;;;;;10.30;3.83;;;;;;;;;;6167266;23;20172;-93
2021/06/04 07:44:12;;;;;;;6.65;3.80;;;;;;;;;;6165757;23;20187;-91
2021/06/04 07:47:17;;;;;;;12.32;4.10;;;;;;;;;;6165640;23;20172;-93
2021/06/04 07:50:22;;;;;;;9.18;4.22;;;;;;;;;;6167364;23;20196;-91
2021/06/04 07:53:35;;;;;;;9.00;4.00;;;;;;;;;;6168173;23;20208;-93
2021/06/04 07:56:41;;;;;;;5.32;3.40;;;;;;;;;;6166013;23;20165;-93
2021/06/04 07:59:48;;;;;;;5.78;3.60;;;;;;;;;;6166391;23;20217;-93
2021/06/04 08:02:57;;;;;;;15.20;4.30;;;;;;;;;;6171889;23;20176;-90
2021/06/04 08:06:06;;;;;;;6.97;4.07;;;;;;;;;;6171382;23;20215;-93
2021/06/04 08:09:13;;;;;;;4.43;3.22;;;;;;;;;;6168629;23;20305;-93
2021/06/04 08:12:18;;;;;;;7.53;3.70;;;;;;;;;;6167914;23;20220;-92
2021/06/04 08:15:27;;;;;;;7.00;4.00;;;;;;;;;;6170812;23;20175;-93
2021/06/04 08:18:33;;;;;;;6.38;3.60;;;;;;;;;;6168663;23;20179;-93
2021/06/04 08:21:40;;;;;;;8.05;4.65;;;;;;;;;;6168645;23;20171;-92
2021/06/04 08:24:46;;;;;;;5.05;3.38;;;;;;;;;;6168669;23;20482;-92
2021/06/04 08:27:51;;;;;;;10.60;3.50;;;;;;;;;;6169152;23;20172;-92
2021/06/04 08:30:59;;;;;;;5.13;3.58;;;;;;;;;;6168778;23;20204;-93
2021/06/04 08:34:05;;;;;;;13.15;4.45;;;;;;;;;;6170330;23;20190;-91
2021/06/04 08:37:09;;;;;;;6.18;3.78;;;;;;;;;;6171903;23;20184;-95
2021/06/04 08:40:16;;;;;;;8.05;4.20;;;;;;;;;;6169759;23;20239;-92
2021/06/04 08:43:31;;;;;;;13.02;3.80;;;;;;;;;;6167795;23;20211;-92
2021/06/04 08:46:39;;;;;;;9.90;3.65;;;;;;;;;;6171312;23;20204;-94
2021/06/04 08:50:08;;;;;;;8.40;4.45;;;;;;;;;;6171455;23;20219;-94
2021/06/04 08:53:19;;;;;;;4.85;3.45;;;;;;;;;;6171805;23;20199;-91
2021/06/04 08:56:26;;;;;;;8.75;4.07;;;;;;;;;;6168580;23;20175;-93
2021/06/04 08:59:33;;;;;;;10.90;3.63;;;;;;;;;;6169413;23;20163;-92
2021/06/04 09:02:41;;;;;;;6.72;3.10;;;;;;;;;;6168373;23;20172;-93
2021/06/04 09:05:47;;;;;;;5.82;3.20;;;;;;;;;;6170595;23;20175;-92
2021/06/04 09:08:52;;;;;;;4.47;3.00;;;;;;;;;;6169096;23;20203;-91
2021/06/04 09:11:58;;;;;;;6.50;3.00;;;;;;;;;;6168153;23;20232;-93
2021/06/04 09:15:04;;;;;;;3.80;3.22;;;;;;;;;;6168942;23;20657;-92
2021/06/04 09:18:15;;;;;;;5.32;3.20;;;;;;;;;;6170911;23;20171;-92
2021/06/04 09:21:22;;;;;;;5.95;3.00;;;;;;;;;;6167882;23;20193;-90
2021/06/04 09:24:28;;;;;;;9.38;3.55;;;;;;;;;;6169064;23;20196;-92
2021/06/04 09:27:34;;;;;;;8.70;3.42;;;;;;;;;;6169345;23;20172;-92
2021/06/04 09:30:41;;;;;;;5.50;3.55;;;;;;;;;;6169530;23;20208;-92
2021/06/04 09:33:51;;;;;;;14.48;3.55;;;;;;;;;;6170335;23;20196;-92
2021/06/04 09:36:59;;;;;;;8.55;4.57;;;;;;;;;;6172438;23;20168;-94
2021/06/04 09:40:11;;;;;;;7.70;3.28;;;;;;;;;;6153329;23;20248;-92
2021/06/04 09:43:22;;;;;;;8.13;3.50;;;;;;;;;;6169522;23;20186;-93
2021/06/04 09:46:31;;;;;;;5.10;2.90;;;;;;;;;;6152302;23;20160;-92
2021/06/04 09:49:51;;;;;;;6.97;3.22;;;;;;;;;;6153204;23;20243;-92
2021/06/04 09:53:07;;;;;;;5.72;3.47;;;;;;;;;;6156559;23;20250;-93
2021/06/04 09:56:24;;;;;;;8.85;3.08;;;;;;;;;;6150516;23;20188;-91
2021/06/04 09:59:30;;;;;;;8.48;3.00;;;;;;;;;;6151095;23;20164;-91
2021/06/04 10:02:36;;;;;;;5.80;3.75;;;;;;;;;;6153029;23;20497;-91
2021/06/04 10:05:42;;;;;;;13.15;3.55;;;;;;;;;;6152996;23;20180;-92
2021/06/04 10:35:13;;;;;;;5.97;3.03;;;;;;;;;;6163787;23;20651;-92
2021/06/04 10:38:22;;;;;;;8.13;2.95;;;;;;;;;;6181078;23;20166;-92
2021/06/04 10:41:29;;;;;;;3.58;2.15;;;;;;;;;;6196224;23;20171;-93
2021/06/04 10:44:37;;;;;;;9.82;2.70;;;;;;;;;;6197441;23;20163;-94
2021/06/04 10:47:48;;;;;;;5.40;2.65;;;;;;;;;;6195967;23;20226;-93
2021/06/04 10:50:59;;;;;;;3.38;2.60;;;;;;;;;;6196224;23;20210;-92
2021/06/04 10:54:19;;;;;;;4.28;2.40;;;;;;;;;;6200281;23;20281;-93
2021/06/04 10:57:26;;;;;;;6.22;2.33;;;;;;;;;;6199804;23;20176;-94
2021/06/04 11:00:33;;;;;;;4.60;2.30;;;;;;;;;;6197542;23;20167;-94
2021/06/04 11:03:39;;;;;;;6.05;2.20;;;;;;;;;;6200794;23;20175;-93
2021/06/04 11:10:18;;;;;;;2.58;1.92;;;;;;;;;;6184659;23;20175;-91
2021/06/04 11:13:34;;;;;;;4.88;1.98;;;;;;;;;;6201587;23;20241;-90
2021/06/04 11:16:43;;;;;;;6.50;1.60;;;;;;;;;;6200028;23;20223;-91
2021/06/04 11:19:51;;;;;;;3.47;1.50;;;;;;;;;;6198967;23;20171;-89
2021/06/04 11:23:11;;;;;;;2.13;1.70;;;;;;;;;;6198263;23;20170;-91
2021/06/04 11:26:17;;;;;;;3.03;1.60;;;;;;;;;;6200382;23;20187;-91
2021/06/04 11:29:23;;;;;;;4.18;1.58;;;;;;;;;;6200287;23;20655;-90
2021/06/04 11:32:30;;;;;;;2.22;1.50;;;;;;;;;;6197447;23;20187;-93
2021/06/04 11:35:39;;;;;;;2.58;1.77;;;;;;;;;;6206377;23;20194;-92
2021/06/04 11:38:49;;;;;;;2.03;1.60;;;;;;;;;;6197878;23;20179;-92
2021/06/04 11:41:56;;;;;;;2.05;1.42;;;;;;;;;;6217144;23;20203;-92
2021/06/04 11:45:02;;;;;;;4.32;1.45;;;;;;;;;;6200184;23;20228;-93
2021/06/04 11:48:28;;;;;;;3.83;1.85;;;;;;;;;;6197944;23;20175;-93
2021/06/04 11:51:40;;;;;;;5.07;1.65;;;;;;;;;;6215307;23;20195;-92
2021/06/04 11:54:46;;;;;;;2.65;1.60;;;;;;;;;;6197212;23;20155;-92
2021/06/04 11:57:52;;;;;;;2.35;1.42;;;;;;;;;;6197804;23;20174;-93
2021/06/04 12:01:11;;;;;;;2.97;1.27;;;;;;;;;;6197835;23;20154;-92
2021/06/04 12:04:18;;;;;;;5.18;3.58;;;;;;;;;;6201628;23;20194;-92
2021/06/04 12:07:34;;;;;;;2.10;1.70;;;;;;;;;;6198366;23;20163;-91
2021/06/04 12:10:53;;;;;;;1.65;1.40;;;;;;;;;;6197289;23;20246;-92
2021/06/04 12:14:15;;;;;;;3.35;1.70;;;;;;;;;;6193224;23;20199;-93
2021/06/04 12:17:25;;;;;;;2.38;1.58;;;;;;;;;;6194607;23;20171;-92
2021/06/04 12:20:39;;;;;;;2.50;1.52;;;;;;;;;;6195719;23;20171;-93
2021/06/04 12:23:47;;;;;;;3.17;1.70;;;;;;;;;;6195410;23;20179;-93
2021/06/04 12:26:52;;;;;;;2.00;1.60;;;;;;;;;;6196844;23;20178;-90
2021/06/04 12:29:59;;;;;;;1.90;1.50;;;;;;;;;;6199596;23;20167;-92
2021/06/04 12:33:04;;;;;;;3.65;1.52;;;;;;;;;;6199735;23;20199;-93
2021/06/04 12:36:28;;;;;;;2.20;1.40;;;;;;;;;;6198872;23;20198;-92
2021/06/04 12:39:58;;;;;;;2.17;1.70;;;;;;;;;;6198865;23;20497;-93
2021/06/04 12:43:12;;;;;;;4.50;1.58;;;;;;;;;;6199878;23;20163;-92
2021/06/04 12:46:22;;;;;;;1.98;1.60;;;;;;;;;;6201857;23;20159;-93
2021/06/04 12:49:26;;;;;;;3.33;1.35;;;;;;;;;;6195229;23;20171;-94
2021/06/04 12:52:31;;;;;;;1.50;1.40;;;;;;;;;;6197952;23;20171;-93
2021/06/04 12:55:37;;;;;;;2.80;1.50;;;;;;;;;;6198342;23;20657;-91
2021/06/04 12:58:42;;;;;;;2.40;1.60;;;;;;;;;;6196306;23;20222;-91
2021/06/04 13:02:12;;;;;;;3.80;1.67;;;;;;;;;;6197136;23;20171;-92
2021/06/04 13:05:17;;;;;;;1.88;1.40;;;;;;;;;;6198568;23;20191;-92
2021/06/04 13:08:23;;;;;;;2.60;1.42;;;;;;;;;;6198969;23;20167;-92
2021/06/04 13:11:33;;;;;;;1.83;1.27;;;;;;;;;;6196937;23;20222;-93
2021/06/04 13:14:40;;;;;;;1.20;1.00;;;;;;;;;;6197799;23;20523;-92
2021/06/04 13:17:54;;;;;;;2.50;1.10;;;;;;;;;;6199442;23;20482;-93
2021/06/04 13:21:15;;;;;;;3.10;1.20;;;;;;;;;;6200203;23;20611;-91
2021/06/04 13:24:28;;;;;;;2.95;1.13;;;;;;;;;;6199211;23;20219;-93
2021/06/04 13:27:34;;;;;;;2.83;1.42;;;;;;;;;;6198462;23;20212;-94
2021/06/04 13:30:41;;;;;;;1.50;1.30;;;;;;;;;;6199270;23;20543;-92
2021/06/04 13:33:51;;;;;;;1.70;1.15;;;;;;;;;;6197463;23;20219;-93
2021/06/04 13:36:57;;;;;;;3.47;1.30;;;;;;;;;;6198587;23;20179;-92
2021/06/04 13:40:01;;;;;;;1.90;1.40;;;;;;;;;;6201277;23;20167;-92
2021/06/04 13:43:06;;;;;;;2.15;1.40;;;;;;;;;;6197643;23;20498;-93
2021/06/04 13:46:13;;;;;;;1.40;1.10;;;;;;;;;;6197398;23;20217;-92
2021/06/04 13:49:31;;;;;;;2.63;1.60;;;;;;;;;;6196209;23;20168;-90
2021/06/04 13:52:36;;;;;;;2.85;1.40;;;;;;;;;;6196572;23;20168;-93
2021/06/04 13:55:42;;;;;;;2.45;1.20;;;;;;;;;;6198866;23;20174;-93
2021/06/04 13:58:47;;;;;;;3.65;1.45;;;;;;;;;;6199456;23;20618;-93
2021/06/04 14:01:57;;;;;;;4.22;1.80;;;;;;;;;;6200688;23;20167;-92
2021/06/04 14:05:29;;;;;;;5.25;1.50;;;;;;;;;;6201637;23;20187;-94
2021/06/04 14:08:35;;;;;;;4.20;1.73;;;;;;;;;;6159765;23;20210;-93
2021/06/04 14:11:48;;;;;;;4.13;1.40;;;;;;;;;;6197200;23;20176;-92
2021/06/04 14:14:55;;;;;;;6.97;1.42;;;;;;;;;;6196767;23;20194;-92
2021/06/04 14:18:00;;;;;;;3.03;1.33;;;;;;;;;;6198052;23;20195;-92
2021/06/04 14:21:21;;;;;;;4.28;1.60;;;;;;;;;;6197157;23;20610;-92
2021/06/04 14:24:36;;;;;;;2.55;1.30;;;;;;;;;;6197064;23;20171;-91
2021/06/04 14:27:43;;;;;;;7.57;1.38;;;;;;;;;;6199294;23;20175;-92
2021/06/04 14:30:50;;;;;;;2.20;1.15;;;;;;;;;;6197779;23;20171;-92
2021/06/04 14:33:55;;;;;;;2.38;1.45;;;;;;;;;;6197232;23;20342;-92
2021/06/04 14:37:01;;;;;;;4.05;1.27;;;;;;;;;;6151379;23;20155;-90
2021/06/04 14:40:16;;;;;;;2.58;1.50;;;;;;;;;;6151046;23;20169;-93
2021/06/04 14:43:21;;;;;;;3.35;1.58;;;;;;;;;;6151000;23;20176;-92
2021/06/04 14:46:26;;;;;;;3.92;1.40;;;;;;;;;;6150474;23;20671;-92
2021/06/04 14:49:31;;;;;;;3.80;1.25;;;;;;;;;;6150188;23;20195;-92
2021/06/04 14:52:36;;;;;;;1.70;1.35;;;;;;;;;;6149460;23;20159;-92
2021/06/04 14:55:42;;;;;;;2.00;1.50;;;;;;;;;;6150660;23;20214;-91
2021/06/04 14:58:47;;;;;;;3.28;1.20;;;;;;;;;;6150561;23;20173;-92
2021/06/04 15:01:52;;;;;;;3.63;1.50;;;;;;;;;;6148771;23;20279;-91
2021/06/04 15:04:57;;;;;;;2.00;1.50;;;;;;;;;;6154518;23;20168;-91
2021/06/04 15:08:01;;;;;;;2.20;1.23;;;;;;;;;;6150949;23;20167;-92
2021/06/04 15:11:10;;;;;;;2.72;1.27;;;;;;;;;;6148995;23;20220;-91
2021/06/04 15:14:14;;;;;;;2.15;1.60;;;;;;;;;;6149734;23;20199;-92
2021/06/04 15:17:19;;;;;;;2.53;1.33;;;;;;;;;;6149519;23;20197;-93
2021/06/04 15:20:24;;;;;;;3.08;1.45;;;;;;;;;;6148637;23;20200;-93
2021/06/04 15:23:30;;;;;;;15.07;1.65;;;;;;;;;;6149836;23;20217;-92
2021/06/04 15:26:37;;;;;;;2.72;1.50;;;;;;;;;;6148779;23;20172;-91
2021/06/04 15:29:42;;;;;;;2.92;1.30;;;;;;;;;;6151226;23;20172;-91
2021/06/04 15:32:47;;;;;;;14.82;2.20;;;;;;;;;;6150878;23;20176;-92
2021/06/04 15:35:52;;;;;;;10.15;6.20;;;;;;;;;;6185784;23;20234;-92
2021/06/04 15:38:57;;;;;;;6.85;2.20;;;;;;;;;;6199997;23;20195;-91
2021/06/04 15:42:04;;;;;;;4.75;1.75;;;;;;;;;;6198749;23;20494;-91
2021/06/04 15:45:10;;;;;;;2.80;1.42;;;;;;;;;;6196997;23;20196;-92
2021/06/04 15:48:15;;;;;;;4.20;1.30;;;;;;;;;;6198364;23;20179;-91
2021/06/04 15:51:20;;;;;;;5.00;1.80;;;;;;;;;;6199119;23;20231;-91
2021/06/04 15:54:25;;;;;;;2.60;1.70;;;;;;;;;;6199055;23;20220;-91
2021/06/04 15:57:31;;;;;;;2.03;1.27;;;;;;;;;;6196794;23;20283;-91
2021/06/04 16:00:37;;;;;;;2.25;1.23;;;;;;;;;;6199145;23;20192;-92
2021/06/04 16:03:42;;;;;;;4.75;1.63;;;;;;;;;;6197697;23;20244;-90
2021/06/04 16:06:47;;;;;;;4.38;1.33;;;;;;;;;;6198019;23;20196;-92
2021/06/04 16:09:52;;;;;;;4.78;2.00;;;;;;;;;;6195640;23;20183;-89
2021/06/04 16:13:01;;;;;;;5.50;2.10;;;;;;;;;;6197558;23;20179;-89
2021/06/04 16:16:07;;;;;;;8.43;2.47;;;;;;;;;;6195314;23;20164;-90
2021/06/04 16:19:11;;;;;;;2.17;1.60;;;;;;;;;;6196060;23;20176;-90
2021/06/04 16:22:16;;;;;;;4.63;1.95;;;;;;;;;;6194643;23;20751;-90
2021/06/04 16:25:21;;;;;;;8.20;2.28;;;;;;;;;;6213352;23;20175;-90
2021/06/04 16:28:27;;;;;;;7.43;2.30;;;;;;;;;;6199930;23;20175;-90
2021/06/04 16:31:39;;;;;;;5.60;1.95;;;;;;;;;;6197488;23;20219;-89
2021/06/04 16:34:44;;;;;;;3.75;1.50;;;;;;;;;;6197697;23;20701;-89
2021/06/04 16:37:49;;;;;;;3.63;1.80;;;;;;;;;;6195830;23;20191;-90
2021/06/04 16:40:54;;;;;;;3.65;1.90;;;;;;;;;;6196341;23;20183;-90
2021/06/04 16:44:00;;;;;;;4.45;1.65;;;;;;;;;;6179419;23;20247;-90
2021/06/04 16:47:05;;;;;;;3.00;2.05;;;;;;;;;;6197811;23;20288;-93
2021/06/04 16:50:11;;;;;;;5.00;2.28;;;;;;;;;;6197898;23;20211;-91
2021/06/04 16:53:15;;;;;;;5.38;2.30;;;;;;;;;;6195807;23;20195;-89
2021/06/04 16:56:19;;;;;;;5.93;2.00;;;;;;;;;;6199430;23;20183;-91
2021/06/04 16:59:25;;;;;;;5.15;2.33;;;;;;;;;;6178598;23;20170;-89
2021/06/04 17:02:30;;;;;;;4.57;2.20;;;;;;;;;;6195994;23;20171;-89
2021/06/04 17:05:35;;;;;;;4.95;2.25;;;;;;;;;;6197489;23;20258;-89
2021/06/04 17:08:40;;;;;;;4.05;1.90;;;;;;;;;;6179680;23;20248;-90
2021/06/04 17:11:45;;;;;;;3.42;1.85;;;;;;;;;;6197244;23;20179;-92
2021/06/04 17:14:53;;;;;;;3.85;1.95;;;;;;;;;;6180490;23;20246;-91
2021/06/04 17:17:58;;;;;;;5.00;2.20;;;;;;;;;;6196821;23;20175;-91
2021/06/04 17:21:03;;;;;;;3.08;1.88;;;;;;;;;;6199511;23;20197;-89
2021/06/04 17:24:08;;;;;;;5.82;2.10;;;;;;;;;;6198207;23;20172;-90
2021/06/04 17:27:12;;;;;;;3.28;2.15;;;;;;;;;;6197664;23;20599;-91
2021/06/04 17:30:20;;;;;;;4.80;2.17;;;;;;;;;;6198906;23;20167;-91
2021/06/04 17:33:26;;;;;;;4.25;2.13;;;;;;;;;;6197461;23;20272;-90
2021/06/04 17:36:31;;;;;;;7.30;2.58;;;;;;;;;;6169726;23;20250;-88
2021/06/04 17:39:35;;;;;;;12.25;2.40;;;;;;;;;;6151511;23;20168;-89
2021/06/04 17:42:40;;;;;;;6.70;2.03;;;;;;;;;;6151782;23;20248;-90
2021/06/04 17:45:46;;;;;;;5.22;2.60;;;;;;;;;;6150698;23;20216;-90
2021/06/04 17:48:53;;;;;;;5.85;2.10;;;;;;;;;;6152163;23;20188;-89
2021/06/04 17:51:57;;;;;;;3.63;2.10;;;;;;;;;;6150622;23;20167;-92
2021/06/04 17:55:04;;;;;;;5.53;1.98;;;;;;;;;;6149110;23;20828;-89
2021/06/04 17:58:09;;;;;;;4.43;2.20;;;;;;;;;;6147944;23;20169;-91
2021/06/04 18:01:15;;;;;;;7.00;2.17;;;;;;;;;;6148927;23;20235;-91
2021/06/04 18:04:20;;;;;;;8.82;2.13;;;;;;;;;;6149348;23;20168;-90
2021/06/04 18:07:25;;;;;;;8.68;2.40;;;;;;;;;;6147295;23;20197;-90
2021/06/04 18:10:29;;;;;;;4.53;2.30;;;;;;;;;;6149569;23;20616;-90
2021/06/04 18:13:36;;;;;;;3.88;2.10;;;;;;;;;;6147538;23;20220;-90
2021/06/04 18:16:42;;;;;;;8.18;2.20;;;;;;;;;;6149876;23;20279;-89
2021/06/04 18:19:47;;;;;;;8.20;2.20;;;;;;;;;;6152068;23;20184;-90
2021/06/04 18:22:52;;;;;;;4.18;2.70;;;;;;;;;;6149764;23;20180;-89
2021/06/04 18:25:56;;;;;;;6.07;2.92;;;;;;;;;;6150203;23;20663;-90
2021/06/04 18:29:01;;;;;;;4.88;2.70;;;;;;;;;;6151121;23;20374;-91
2021/06/04 18:32:08;;;;;;;5.80;3.00;;;;;;;;;;6146608;23;20192;-90
2021/06/04 18:35:14;;;;;;;9.60;3.70;;;;;;;;;;6164866;23;20207;-90
2021/06/04 18:38:19;;;;;;;12.27;3.83;;;;;;;;;;6195834;23;20806;-90
2021/06/04 18:41:23;;;;;;;9.20;2.75;;;;;;;;;;6193619;23;20176;-89
2021/06/04 18:44:29;;;;;;;7.80;2.97;;;;;;;;;;6195483;23;20171;-90
2021/06/04 18:47:35;;;;;;;6.93;3.33;;;;;;;;;;6194659;23;20229;-90
2021/06/04 18:50:40;;;;;;;13.45;3.80;;;;;;;;;;6195134;23;20156;-89
2021/06/04 18:53:45;;;;;;;5.28;3.40;;;;;;;;;;6193028;23;20199;-92
2021/06/04 18:56:49;;;;;;;6.53;3.47;;;;;;;;;;6196681;23;20209;-91
2021/06/04 18:59:54;;;;;;;6.43;3.88;;;;;;;;;;6198514;23;20303;-91
2021/06/04 19:03:01;;;;;;;14.63;3.65;;;;;;;;;;6200637;23;20159;-94
2021/06/04 19:06:07;;;;;;;8.10;3.40;;;;;;;;;;6196473;23;20171;-91
2021/06/04 19:09:11;;;;;;;7.90;3.90;;;;;;;;;;6195187;23;20486;-92
2021/06/04 19:12:16;;;;;;;6.88;3.42;;;;;;;;;;6196761;23;20199;-93
2021/06/04 19:15:21;;;;;;;9.45;3.95;;;;;;;;;;6197333;23;20211;-93